sensor_id;sensor_type;location;lat;lon;timestamp;temperature;humidity
8684;DHT22;4379;59.744;18.206;2023-03-08T00:01:17;-2.30;99.90
8684;DHT22;4379;59.744;18.206;2023-03-08T00:03:44;-2.30;99.90
8684;DHT22;4379;59.744;18.206;2023-03-08T00:06:14;-2.30;99.90
8684;DHT22;4379;59.744;18.206;2023-03-08T00:08:42;-2.40;99.90
8684;DHT22;4379;59.744;18.206;2023-03-08T00:11:11;-2.40;99.90
8684;DHT22;4379;59.744;18.206;2023-03-08T00:13:39;-2.30;99.90
8684;DHT22;4379;59.744;18.206;2023-03-08T00:16:09;-2.40;99.90
8684;DHT22;4379;59.744;18.206;2023-03-08T00:18:37;-2.40;99.90
8684;DHT22;4379;59.744;18.206;2023-03-08T00:21:09;-2.40;99.90
8684;DHT22;4379;59.744;18.206;2023-03-08T00:23:38;-2.40;99.90
8684;DHT22;4379;59.744;18.206;2023-03-08T00:26:05;-2.40;99.90
8684;DHT22;4379;59.744;18.206;2023-03-08T00:28:32;-2.40;99.90
8684;DHT22;4379;59.744;18.206;2023-03-08T00:31:02;-2.40;99.90
8684;DHT22;4379;59.744;18.206;2023-03-08T00:33:30;-2.50;99.90
8684;DHT22;4379;59.744;18.206;2023-03-08T00:36:05;-2.40;99.90
8684;DHT22;4379;59.744;18.206;2023-03-08T00:38:34;-2.40;99.90
8684;DHT22;4379;59.744;18.206;2023-03-08T00:41:02;-2.50;99.90
8684;DHT22;4379;59.744;18.206;2023-03-08T00:43:30;-2.50;99.90
8684;DHT22;4379;59.744;18.206;2023-03-08T00:45:58;-2.50;99.90
8684;DHT22;4379;59.744;18.206;2023-03-08T00:48:25;-2.50;99.90
8684;DHT22;4379;59.744;18.206;2023-03-08T00:50:53;-2.50;99.90
8684;DHT22;4379;59.744;18.206;2023-03-08T00:53:20;-2.50;99.90
8684;DHT22;4379;59.744;18.206;2023-03-08T00:55:49;-2.50;99.90
8684;DHT22;4379;59.744;18.206;2023-03-08T00:58:16;-2.50;99.90
8684;DHT22;4379;59.744;18.206;2023-03-08T01:00:44;-2.50;99.90
8684;DHT22;4379;59.744;18.206;2023-03-08T01:03:12;-2.50;99.90
8684;DHT22;4379;59.744;18.206;2023-03-08T01:05:45;-2.50;99.90
8684;DHT22;4379;59.744;18.206;2023-03-08T01:08:13;-2.50;99.90
8684;DHT22;4379;59.744;18.206;2023-03-08T01:10:55;-2.60;99.90
8684;DHT22;4379;59.744;18.206;2023-03-08T01:13:25;-2.60;99.90
8684;DHT22;4379;59.744;18.206;2023-03-08T01:15:53;-2.60;99.90
8684;DHT22;4379;59.744;18.206;2023-03-08T01:18:20;-2.60;99.90
8684;DHT22;4379;59.744;18.206;2023-03-08T01:20:58;-2.60;99.90
8684;DHT22;4379;59.744;18.206;2023-03-08T01:23:26;-2.50;99.90
8684;DHT22;4379;59.744;18.206;2023-03-08T01:26:05;-2.50;99.90
8684;DHT22;4379;59.744;18.206;2023-03-08T01:28:33;-2.50;99.90
8684;DHT22;4379;59.744;18.206;2023-03-08T01:31:03;-2.60;99.90
8684;DHT22;4379;59.744;18.206;2023-03-08T01:33:31;-2.60;99.90
8684;DHT22;4379;59.744;18.206;2023-03-08T01:36:01;-2.60;99.90
8684;DHT22;4379;59.744;18.206;2023-03-08T01:38:28;-2.60;99.90
8684;DHT22;4379;59.744;18.206;2023-03-08T01:41:00;-2.60;99.90
8684;DHT22;4379;59.744;18.206;2023-03-08T01:46:22;-2.60;99.90
8684;DHT22;4379;59.744;18.206;2023-03-08T01:49:09;-2.70;99.90
8684;DHT22;4379;59.744;18.206;2023-03-08T01:54:29;-2.70;99.90
8684;DHT22;4379;59.744;18.206;2023-03-08T01:57:34;-2.70;99.90
8684;DHT22;4379;59.744;18.206;2023-03-08T02:00:14;-2.70;99.90
8684;DHT22;4379;59.744;18.206;2023-03-08T02:02:48;-2.70;99.90
8684;DHT22;4379;59.744;18.206;2023-03-08T02:05:17;-2.70;99.90
8684;DHT22;4379;59.744;18.206;2023-03-08T02:07:44;-2.70;99.90
8684;DHT22;4379;59.744;18.206;2023-03-08T02:10:12;-2.70;99.90
8684;DHT22;4379;59.744;18.206;2023-03-08T02:12:40;-2.60;99.90
8684;DHT22;4379;59.744;18.206;2023-03-08T02:15:09;-2.70;99.90
8684;DHT22;4379;59.744;18.206;2023-03-08T02:17:39;-2.60;99.90
8684;DHT22;4379;59.744;18.206;2023-03-08T02:20:21;-2.70;99.90
8684;DHT22;4379;59.744;18.206;2023-03-08T02:22:50;-2.60;99.90
8684;DHT22;4379;59.744;18.206;2023-03-08T02:25:22;-2.70;99.90
8684;DHT22;4379;59.744;18.206;2023-03-08T02:27:51;-2.70;99.90
8684;DHT22;4379;59.744;18.206;2023-03-08T02:30:24;-2.70;99.90
8684;DHT22;4379;59.744;18.206;2023-03-08T02:32:52;-2.70;99.90
8684;DHT22;4379;59.744;18.206;2023-03-08T02:35:19;-2.70;99.90
8684;DHT22;4379;59.744;18.206;2023-03-08T02:37:46;-2.70;99.90
8684;DHT22;4379;59.744;18.206;2023-03-08T02:40:14;-2.70;99.90
8684;DHT22;4379;59.744;18.206;2023-03-08T02:42:41;-2.70;99.90
8684;DHT22;4379;59.744;18.206;2023-03-08T02:45:09;-2.70;99.90
8684;DHT22;4379;59.744;18.206;2023-03-08T02:47:36;-2.70;99.90
8684;DHT22;4379;59.744;18.206;2023-03-08T02:50:05;-2.70;99.90
8684;DHT22;4379;59.744;18.206;2023-03-08T02:52:33;-2.70;99.90
8684;DHT22;4379;59.744;18.206;2023-03-08T02:55:00;-2.70;99.90
8684;DHT22;4379;59.744;18.206;2023-03-08T02:57:27;-2.60;99.90
8684;DHT22;4379;59.744;18.206;2023-03-08T02:59:54;-2.70;99.90
8684;DHT22;4379;59.744;18.206;2023-03-08T03:02:21;-2.60;99.90
8684;DHT22;4379;59.744;18.206;2023-03-08T03:04:49;-2.80;99.90
8684;DHT22;4379;59.744;18.206;2023-03-08T03:07:16;-2.80;99.90
8684;DHT22;4379;59.744;18.206;2023-03-08T03:09:43;-2.80;99.90
8684;DHT22;4379;59.744;18.206;2023-03-08T03:12:10;-2.80;99.90
8684;DHT22;4379;59.744;18.206;2023-03-08T03:14:38;-2.80;99.90
8684;DHT22;4379;59.744;18.206;2023-03-08T03:17:05;-2.80;99.90
8684;DHT22;4379;59.744;18.206;2023-03-08T03:19:32;-2.90;99.90
8684;DHT22;4379;59.744;18.206;2023-03-08T03:21:59;-2.90;99.90
8684;DHT22;4379;59.744;18.206;2023-03-08T03:24:27;-2.90;99.90
8684;DHT22;4379;59.744;18.206;2023-03-08T03:26:54;-2.90;99.90
8684;DHT22;4379;59.744;18.206;2023-03-08T03:29:21;-2.90;99.90
8684;DHT22;4379;59.744;18.206;2023-03-08T03:31:49;-2.80;99.90
8684;DHT22;4379;59.744;18.206;2023-03-08T03:34:16;-2.80;99.90
8684;DHT22;4379;59.744;18.206;2023-03-08T03:36:43;-2.80;99.90
8684;DHT22;4379;59.744;18.206;2023-03-08T03:39:10;-2.80;99.90
8684;DHT22;4379;59.744;18.206;2023-03-08T03:41:37;-2.80;99.90
8684;DHT22;4379;59.744;18.206;2023-03-08T03:44:05;-2.80;99.90
8684;DHT22;4379;59.744;18.206;2023-03-08T03:46:32;-2.80;99.90
8684;DHT22;4379;59.744;18.206;2023-03-08T03:48:59;-2.80;99.90
8684;DHT22;4379;59.744;18.206;2023-03-08T03:51:26;-2.90;99.90
8684;DHT22;4379;59.744;18.206;2023-03-08T03:53:53;-2.90;99.90
8684;DHT22;4379;59.744;18.206;2023-03-08T03:56:24;-2.80;99.90
8684;DHT22;4379;59.744;18.206;2023-03-08T03:58:52;-2.80;99.90
8684;DHT22;4379;59.744;18.206;2023-03-08T04:01:26;-2.90;99.90
8684;DHT22;4379;59.744;18.206;2023-03-08T04:03:54;-2.90;99.90
8684;DHT22;4379;59.744;18.206;2023-03-08T04:06:30;-2.90;99.90
8684;DHT22;4379;59.744;18.206;2023-03-08T04:09:04;-2.90;99.90
8684;DHT22;4379;59.744;18.206;2023-03-08T04:11:34;-2.90;99.90
8684;DHT22;4379;59.744;18.206;2023-03-08T04:14:03;-2.80;99.90
8684;DHT22;4379;59.744;18.206;2023-03-08T04:16:33;-2.80;99.90
8684;DHT22;4379;59.744;18.206;2023-03-08T04:19:03;-2.90;99.90
8684;DHT22;4379;59.744;18.206;2023-03-08T04:21:31;-2.80;99.90
8684;DHT22;4379;59.744;18.206;2023-03-08T04:23:59;-2.80;99.90
8684;DHT22;4379;59.744;18.206;2023-03-08T04:26:27;-2.80;99.90
8684;DHT22;4379;59.744;18.206;2023-03-08T04:28:54;-2.90;99.90
8684;DHT22;4379;59.744;18.206;2023-03-08T04:31:27;-2.90;99.90
8684;DHT22;4379;59.744;18.206;2023-03-08T04:33:55;-2.90;99.90
8684;DHT22;4379;59.744;18.206;2023-03-08T04:36:24;-2.90;99.90
8684;DHT22;4379;59.744;18.206;2023-03-08T04:38:51;-2.80;99.90
8684;DHT22;4379;59.744;18.206;2023-03-08T04:41:19;-2.80;99.90
8684;DHT22;4379;59.744;18.206;2023-03-08T04:43:53;-2.90;99.90
8684;DHT22;4379;59.744;18.206;2023-03-08T04:46:25;-2.80;99.90
8684;DHT22;4379;59.744;18.206;2023-03-08T04:48:54;-2.90;99.90
8684;DHT22;4379;59.744;18.206;2023-03-08T04:51:24;-2.90;99.90
8684;DHT22;4379;59.744;18.206;2023-03-08T04:53:51;-2.90;99.90
8684;DHT22;4379;59.744;18.206;2023-03-08T04:56:19;-3.00;99.90
8684;DHT22;4379;59.744;18.206;2023-03-08T04:58:46;-3.00;99.90
8684;DHT22;4379;59.744;18.206;2023-03-08T05:01:16;-3.00;99.90
8684;DHT22;4379;59.744;18.206;2023-03-08T05:03:44;-3.00;99.90
8684;DHT22;4379;59.744;18.206;2023-03-08T05:06:12;-3.00;99.90
8684;DHT22;4379;59.744;18.206;2023-03-08T05:08:40;-3.10;99.90
8684;DHT22;4379;59.744;18.206;2023-03-08T05:11:08;-3.10;99.90
8684;DHT22;4379;59.744;18.206;2023-03-08T05:13:37;-3.00;99.90
8684;DHT22;4379;59.744;18.206;2023-03-08T05:16:06;-3.10;99.90
8684;DHT22;4379;59.744;18.206;2023-03-08T05:18:34;-3.10;99.90
8684;DHT22;4379;59.744;18.206;2023-03-08T05:21:05;-3.10;99.90
8684;DHT22;4379;59.744;18.206;2023-03-08T05:23:33;-3.00;99.90
8684;DHT22;4379;59.744;18.206;2023-03-08T05:26:02;-3.10;99.90
8684;DHT22;4379;59.744;18.206;2023-03-08T05:28:32;-3.00;99.90
8684;DHT22;4379;59.744;18.206;2023-03-08T05:31:20;-3.00;99.90
8684;DHT22;4379;59.744;18.206;2023-03-08T05:33:49;-3.10;99.90
8684;DHT22;4379;59.744;18.206;2023-03-08T05:36:18;-3.10;99.90
8684;DHT22;4379;59.744;18.206;2023-03-08T05:38:45;-3.10;99.90
8684;DHT22;4379;59.744;18.206;2023-03-08T05:41:15;-3.10;99.90
8684;DHT22;4379;59.744;18.206;2023-03-08T05:43:42;-3.10;99.90
8684;DHT22;4379;59.744;18.206;2023-03-08T05:46:14;-3.20;99.90
8684;DHT22;4379;59.744;18.206;2023-03-08T05:48:42;-3.10;99.90
8684;DHT22;4379;59.744;18.206;2023-03-08T05:51:12;-3.20;99.90
8684;DHT22;4379;59.744;18.206;2023-03-08T05:53:40;-3.10;99.90
8684;DHT22;4379;59.744;18.206;2023-03-08T05:56:16;-3.20;99.90
8684;DHT22;4379;59.744;18.206;2023-03-08T05:58:44;-3.20;99.90
8684;DHT22;4379;59.744;18.206;2023-03-08T06:01:19;-3.20;99.90
8684;DHT22;4379;59.744;18.206;2023-03-08T06:03:49;-3.10;99.90
8684;DHT22;4379;59.744;18.206;2023-03-08T06:06:18;-3.20;99.90
8684;DHT22;4379;59.744;18.206;2023-03-08T06:08:45;-3.10;99.90
8684;DHT22;4379;59.744;18.206;2023-03-08T06:11:13;-3.10;99.90
8684;DHT22;4379;59.744;18.206;2023-03-08T06:13:40;-3.20;99.90
8684;DHT22;4379;59.744;18.206;2023-03-08T06:16:08;-3.20;99.90
8684;DHT22;4379;59.744;18.206;2023-03-08T06:18:38;-3.20;99.90
8684;DHT22;4379;59.744;18.206;2023-03-08T06:21:16;-3.20;99.90
8684;DHT22;4379;59.744;18.206;2023-03-08T06:23:44;-3.10;99.90
8684;DHT22;4379;59.744;18.206;2023-03-08T06:26:12;-3.10;99.90
8684;DHT22;4379;59.744;18.206;2023-03-08T06:28:40;-3.10;99.90
8684;DHT22;4379;59.744;18.206;2023-03-08T06:31:11;-3.10;99.90
8684;DHT22;4379;59.744;18.206;2023-03-08T06:33:39;-3.20;99.90
8684;DHT22;4379;59.744;18.206;2023-03-08T06:36:10;-3.10;99.90
8684;DHT22;4379;59.744;18.206;2023-03-08T06:38:39;-3.10;99.90
8684;DHT22;4379;59.744;18.206;2023-03-08T06:41:07;-3.10;99.90
8684;DHT22;4379;59.744;18.206;2023-03-08T06:43:36;-3.20;99.90
8684;DHT22;4379;59.744;18.206;2023-03-08T06:46:05;-3.10;99.90
8684;DHT22;4379;59.744;18.206;2023-03-08T06:48:35;-3.10;99.90
8684;DHT22;4379;59.744;18.206;2023-03-08T06:51:04;-3.10;99.90
8684;DHT22;4379;59.744;18.206;2023-03-08T06:53:32;-3.10;99.90
8684;DHT22;4379;59.744;18.206;2023-03-08T06:55:59;-3.10;99.90
8684;DHT22;4379;59.744;18.206;2023-03-08T06:58:29;-3.10;99.90
8684;DHT22;4379;59.744;18.206;2023-03-08T07:00:57;-3.00;99.90
8684;DHT22;4379;59.744;18.206;2023-03-08T07:03:27;-3.00;99.90
8684;DHT22;4379;59.744;18.206;2023-03-08T07:06:05;-3.00;99.90
8684;DHT22;4379;59.744;18.206;2023-03-08T07:08:34;-3.00;99.90
8684;DHT22;4379;59.744;18.206;2023-03-08T07:11:02;-3.10;99.90
8684;DHT22;4379;59.744;18.206;2023-03-08T07:13:30;-3.10;99.90
8684;DHT22;4379;59.744;18.206;2023-03-08T07:15:57;-3.10;99.90
8684;DHT22;4379;59.744;18.206;2023-03-08T07:18:25;-3.20;99.90
8684;DHT22;4379;59.744;18.206;2023-03-08T07:20:56;-3.20;99.90
8684;DHT22;4379;59.744;18.206;2023-03-08T07:23:24;-3.20;99.90
8684;DHT22;4379;59.744;18.206;2023-03-08T07:25:51;-3.10;99.90
8684;DHT22;4379;59.744;18.206;2023-03-08T07:28:19;-3.10;99.90
8684;DHT22;4379;59.744;18.206;2023-03-08T07:30:47;-3.10;99.90
8684;DHT22;4379;59.744;18.206;2023-03-08T07:33:15;-3.10;99.90
8684;DHT22;4379;59.744;18.206;2023-03-08T07:35:43;-3.10;99.90
8684;DHT22;4379;59.744;18.206;2023-03-08T07:38:13;-3.00;99.90
8684;DHT22;4379;59.744;18.206;2023-03-08T07:40:41;-2.90;99.90
8684;DHT22;4379;59.744;18.206;2023-03-08T07:43:09;-3.10;99.90
8684;DHT22;4379;59.744;18.206;2023-03-08T07:45:37;-3.10;99.90
8684;DHT22;4379;59.744;18.206;2023-03-08T07:48:08;-3.00;99.90
8684;DHT22;4379;59.744;18.206;2023-03-08T07:50:35;-3.10;99.90
8684;DHT22;4379;59.744;18.206;2023-03-08T07:53:03;-3.00;99.90
8684;DHT22;4379;59.744;18.206;2023-03-08T07:55:30;-2.90;99.90
8684;DHT22;4379;59.744;18.206;2023-03-08T07:57:58;-2.90;99.90
8684;DHT22;4379;59.744;18.206;2023-03-08T08:00:25;-3.00;99.90
8684;DHT22;4379;59.744;18.206;2023-03-08T08:02:52;-3.00;99.90
8684;DHT22;4379;59.744;18.206;2023-03-08T08:05:20;-2.90;99.90
8684;DHT22;4379;59.744;18.206;2023-03-08T08:07:48;-2.90;99.90
8684;DHT22;4379;59.744;18.206;2023-03-08T08:10:16;-2.90;99.90
8684;DHT22;4379;59.744;18.206;2023-03-08T08:12:44;-2.90;99.90
8684;DHT22;4379;59.744;18.206;2023-03-08T08:15:11;-2.80;99.90
8684;DHT22;4379;59.744;18.206;2023-03-08T08:17:38;-2.80;99.90
8684;DHT22;4379;59.744;18.206;2023-03-08T08:20:06;-2.80;99.90
8684;DHT22;4379;59.744;18.206;2023-03-08T08:22:35;-2.90;99.90
8684;DHT22;4379;59.744;18.206;2023-03-08T08:25:06;-2.80;99.90
8684;DHT22;4379;59.744;18.206;2023-03-08T08:27:34;-2.80;99.90
8684;DHT22;4379;59.744;18.206;2023-03-08T08:30:03;-2.90;99.90
8684;DHT22;4379;59.744;18.206;2023-03-08T08:32:32;-2.90;99.90
8684;DHT22;4379;59.744;18.206;2023-03-08T08:35:01;-2.80;99.90
8684;DHT22;4379;59.744;18.206;2023-03-08T08:37:30;-3.00;99.90
8684;DHT22;4379;59.744;18.206;2023-03-08T08:39:57;-2.80;99.90
8684;DHT22;4379;59.744;18.206;2023-03-08T08:42:25;-2.70;99.90
8684;DHT22;4379;59.744;18.206;2023-03-08T08:44:53;-2.90;99.90
8684;DHT22;4379;59.744;18.206;2023-03-08T08:47:21;-2.80;99.90
8684;DHT22;4379;59.744;18.206;2023-03-08T08:49:48;-2.90;99.90
8684;DHT22;4379;59.744;18.206;2023-03-08T08:52:16;-2.90;99.90
8684;DHT22;4379;59.744;18.206;2023-03-08T08:54:43;-2.80;99.90
8684;DHT22;4379;59.744;18.206;2023-03-08T08:57:11;-2.70;99.90
8684;DHT22;4379;59.744;18.206;2023-03-08T08:59:38;-2.80;99.90
8684;DHT22;4379;59.744;18.206;2023-03-08T09:02:08;-2.80;99.90
8684;DHT22;4379;59.744;18.206;2023-03-08T09:04:36;-2.80;99.90
8684;DHT22;4379;59.744;18.206;2023-03-08T09:07:03;-2.70;99.90
8684;DHT22;4379;59.744;18.206;2023-03-08T09:09:33;-2.80;99.90
8684;DHT22;4379;59.744;18.206;2023-03-08T09:12:00;-2.70;99.90
8684;DHT22;4379;59.744;18.206;2023-03-08T09:14:28;-2.70;99.90
8684;DHT22;4379;59.744;18.206;2023-03-08T09:16:55;-2.60;99.90
8684;DHT22;4379;59.744;18.206;2023-03-08T09:19:23;-2.60;99.90
8684;DHT22;4379;59.744;18.206;2023-03-08T09:21:50;-2.50;99.90
8684;DHT22;4379;59.744;18.206;2023-03-08T09:24:18;-2.50;99.90
8684;DHT22;4379;59.744;18.206;2023-03-08T09:26:45;-2.60;99.90
8684;DHT22;4379;59.744;18.206;2023-03-08T09:29:12;-2.60;99.90
8684;DHT22;4379;59.744;18.206;2023-03-08T09:31:39;-2.50;99.90
8684;DHT22;4379;59.744;18.206;2023-03-08T09:34:13;-2.50;99.90
8684;DHT22;4379;59.744;18.206;2023-03-08T09:36:41;-2.40;99.90
8684;DHT22;4379;59.744;18.206;2023-03-08T09:39:10;-2.40;99.90
8684;DHT22;4379;59.744;18.206;2023-03-08T09:41:59;-2.40;99.90
8684;DHT22;4379;59.744;18.206;2023-03-08T09:52:57;-2.20;99.90
8684;DHT22;4379;59.744;18.206;2023-03-08T09:55:30;-2.30;99.90
8684;DHT22;4379;59.744;18.206;2023-03-08T09:58:06;-2.30;99.90
8684;DHT22;4379;59.744;18.206;2023-03-08T10:00:37;-2.20;99.90
8684;DHT22;4379;59.744;18.206;2023-03-08T10:06:21;-2.20;99.90
8684;DHT22;4379;59.744;18.206;2023-03-08T10:09:06;-2.10;99.90
8684;DHT22;4379;59.744;18.206;2023-03-08T10:11:59;-2.00;99.90
8684;DHT22;4379;59.744;18.206;2023-03-08T10:14:34;-1.90;99.90
8684;DHT22;4379;59.744;18.206;2023-03-08T10:17:12;-1.80;99.90
8684;DHT22;4379;59.744;18.206;2023-03-08T10:19:48;-1.90;99.90
8684;DHT22;4379;59.744;18.206;2023-03-08T10:22:27;-2.00;99.90
8684;DHT22;4379;59.744;18.206;2023-03-08T10:25:22;-2.20;99.90
8684;DHT22;4379;59.744;18.206;2023-03-08T10:27:53;-2.20;99.90
8684;DHT22;4379;59.744;18.206;2023-03-08T10:30:27;-2.10;99.90
8684;DHT22;4379;59.744;18.206;2023-03-08T10:32:57;-2.20;99.90
8684;DHT22;4379;59.744;18.206;2023-03-08T10:35:32;-1.90;99.90
8684;DHT22;4379;59.744;18.206;2023-03-08T10:38:00;-1.90;99.90
8684;DHT22;4379;59.744;18.206;2023-03-08T10:40:28;-1.80;99.90
8684;DHT22;4379;59.744;18.206;2023-03-08T10:43:02;-1.90;99.90
8684;DHT22;4379;59.744;18.206;2023-03-08T10:45:31;-1.80;99.90
8684;DHT22;4379;59.744;18.206;2023-03-08T10:48:04;-1.70;99.90
8684;DHT22;4379;59.744;18.206;2023-03-08T10:50:33;-1.90;99.90
8684;DHT22;4379;59.744;18.206;2023-03-08T10:53:13;-2.10;99.90
8684;DHT22;4379;59.744;18.206;2023-03-08T10:55:45;-2.10;99.90
8684;DHT22;4379;59.744;18.206;2023-03-08T10:58:32;-1.90;99.90
8684;DHT22;4379;59.744;18.206;2023-03-08T11:01:03;-1.70;99.90
8684;DHT22;4379;59.744;18.206;2023-03-08T11:03:32;-1.80;99.90
8684;DHT22;4379;59.744;18.206;2023-03-08T11:06:08;-1.80;99.90
8684;DHT22;4379;59.744;18.206;2023-03-08T11:08:59;-1.90;99.90
8684;DHT22;4379;59.744;18.206;2023-03-08T11:11:27;-2.00;99.90
8684;DHT22;4379;59.744;18.206;2023-03-08T11:13:55;-1.80;99.90
8684;DHT22;4379;59.744;18.206;2023-03-08T11:16:48;-2.00;99.90
8684;DHT22;4379;59.744;18.206;2023-03-08T11:19:25;-1.80;99.90
8684;DHT22;4379;59.744;18.206;2023-03-08T11:22:17;-1.80;99.90
8684;DHT22;4379;59.744;18.206;2023-03-08T11:27:55;-1.70;99.90
8684;DHT22;4379;59.744;18.206;2023-03-08T11:36:15;-1.80;99.90
8684;DHT22;4379;59.744;18.206;2023-03-08T11:38:56;-1.70;99.90
8684;DHT22;4379;59.744;18.206;2023-03-08T11:41:33;-1.70;99.90
8684;DHT22;4379;59.744;18.206;2023-03-08T11:44:45;-1.60;99.90
8684;DHT22;4379;59.744;18.206;2023-03-08T11:58:38;-1.20;99.90
8684;DHT22;4379;59.744;18.206;2023-03-08T12:01:26;-1.10;99.90
8684;DHT22;4379;59.744;18.206;2023-03-08T12:03:58;-0.90;99.90
8684;DHT22;4379;59.744;18.206;2023-03-08T12:06:40;-0.90;99.90
8684;DHT22;4379;59.744;18.206;2023-03-08T12:09:24;-1.00;99.90
8684;DHT22;4379;59.744;18.206;2023-03-08T12:12:33;-1.10;99.90
8684;DHT22;4379;59.744;18.206;2023-03-08T12:17:52;-0.90;99.90
8684;DHT22;4379;59.744;18.206;2023-03-08T12:20:19;-1.30;99.90
8684;DHT22;4379;59.744;18.206;2023-03-08T12:22:53;-1.10;99.90
8684;DHT22;4379;59.744;18.206;2023-03-08T12:25:31;-1.10;99.90
8684;DHT22;4379;59.744;18.206;2023-03-08T12:31:10;-1.00;99.90
8684;DHT22;4379;59.744;18.206;2023-03-08T12:33:55;-1.00;99.90
8684;DHT22;4379;59.744;18.206;2023-03-08T12:36:39;-1.20;99.90
8684;DHT22;4379;59.744;18.206;2023-03-08T12:39:24;-1.30;99.90
8684;DHT22;4379;59.744;18.206;2023-03-08T12:42:24;-1.40;99.90
8684;DHT22;4379;59.744;18.206;2023-03-08T12:45:08;-1.10;99.90
8684;DHT22;4379;59.744;18.206;2023-03-08T12:47:36;-0.90;99.90
8684;DHT22;4379;59.744;18.206;2023-03-08T12:50:09;-1.00;99.90
8684;DHT22;4379;59.744;18.206;2023-03-08T12:52:41;-1.20;99.90
8684;DHT22;4379;59.744;18.206;2023-03-08T12:55:23;-1.20;99.90
8684;DHT22;4379;59.744;18.206;2023-03-08T12:57:59;-1.20;99.90
8684;DHT22;4379;59.744;18.206;2023-03-08T13:00:37;-1.20;99.90
8684;DHT22;4379;59.744;18.206;2023-03-08T13:05:40;-1.20;99.90
8684;DHT22;4379;59.744;18.206;2023-03-08T13:16:57;-1.20;99.90
8684;DHT22;4379;59.744;18.206;2023-03-08T13:21:48;-1.50;99.90
8684;DHT22;4379;59.744;18.206;2023-03-08T13:24:55;-1.40;99.90
8684;DHT22;4379;59.744;18.206;2023-03-08T13:30:56;-1.40;99.90
8684;DHT22;4379;59.744;18.206;2023-03-08T13:36:04;-1.10;99.90
8684;DHT22;4379;59.744;18.206;2023-03-08T13:38:34;-1.10;99.90
8684;DHT22;4379;59.744;18.206;2023-03-08T13:41:02;-1.00;99.90
8684;DHT22;4379;59.744;18.206;2023-03-08T13:43:31;-1.00;99.90
8684;DHT22;4379;59.744;18.206;2023-03-08T13:46:04;-1.10;99.90
8684;DHT22;4379;59.744;18.206;2023-03-08T13:48:36;-1.00;99.90
8684;DHT22;4379;59.744;18.206;2023-03-08T13:51:03;-1.30;99.90
8684;DHT22;4379;59.744;18.206;2023-03-08T13:53:33;-1.00;99.90
8684;DHT22;4379;59.744;18.206;2023-03-08T13:56:04;-1.20;99.90
8684;DHT22;4379;59.744;18.206;2023-03-08T13:58:39;-1.20;99.90
8684;DHT22;4379;59.744;18.206;2023-03-08T14:01:19;-1.20;99.90
8684;DHT22;4379;59.744;18.206;2023-03-08T14:03:50;-1.20;99.90
8684;DHT22;4379;59.744;18.206;2023-03-08T14:08:56;-1.30;99.90
8684;DHT22;4379;59.744;18.206;2023-03-08T14:11:31;-1.50;99.90
8684;DHT22;4379;59.744;18.206;2023-03-08T14:14:01;-1.60;99.90
8684;DHT22;4379;59.744;18.206;2023-03-08T14:19:20;-2.00;99.90
8684;DHT22;4379;59.744;18.206;2023-03-08T14:21:54;-1.90;99.90
8684;DHT22;4379;59.744;18.206;2023-03-08T14:24:32;-2.00;99.90
8684;DHT22;4379;59.744;18.206;2023-03-08T14:27:06;-1.90;99.90
8684;DHT22;4379;59.744;18.206;2023-03-08T14:30:45;-1.80;99.90
8684;DHT22;4379;59.744;18.206;2023-03-08T14:33:16;-1.80;99.90
8684;DHT22;4379;59.744;18.206;2023-03-08T14:35:52;-1.70;99.90
8684;DHT22;4379;59.744;18.206;2023-03-08T14:38:30;-1.80;99.90
8684;DHT22;4379;59.744;18.206;2023-03-08T14:41:01;-1.80;99.90
8684;DHT22;4379;59.744;18.206;2023-03-08T14:43:29;-1.70;99.90
8684;DHT22;4379;59.744;18.206;2023-03-08T14:46:02;-1.70;99.90
8684;DHT22;4379;59.744;18.206;2023-03-08T14:48:32;-1.50;99.90
8684;DHT22;4379;59.744;18.206;2023-03-08T14:51:05;-1.50;99.90
8684;DHT22;4379;59.744;18.206;2023-03-08T14:53:40;-1.70;99.90
8684;DHT22;4379;59.744;18.206;2023-03-08T14:56:13;-1.60;99.90
8684;DHT22;4379;59.744;18.206;2023-03-08T14:58:43;-1.80;99.90
8684;DHT22;4379;59.744;18.206;2023-03-08T15:01:10;-2.00;99.90
8684;DHT22;4379;59.744;18.206;2023-03-08T15:03:37;-1.90;99.90
8684;DHT22;4379;59.744;18.206;2023-03-08T15:06:12;-2.00;99.90
8684;DHT22;4379;59.744;18.206;2023-03-08T15:08:42;-2.00;99.90
8684;DHT22;4379;59.744;18.206;2023-03-08T15:11:09;-1.80;99.90
8684;DHT22;4379;59.744;18.206;2023-03-08T15:13:36;-1.90;99.90
8684;DHT22;4379;59.744;18.206;2023-03-08T15:16:06;-1.90;99.90
8684;DHT22;4379;59.744;18.206;2023-03-08T15:18:33;-1.90;99.90
8684;DHT22;4379;59.744;18.206;2023-03-08T15:21:01;-2.00;99.90
8684;DHT22;4379;59.744;18.206;2023-03-08T15:23:35;-2.10;99.90
8684;DHT22;4379;59.744;18.206;2023-03-08T15:26:04;-2.10;99.90
8684;DHT22;4379;59.744;18.206;2023-03-08T15:28:33;-2.20;99.90
8684;DHT22;4379;59.744;18.206;2023-03-08T15:31:00;-2.20;99.90
8684;DHT22;4379;59.744;18.206;2023-03-08T15:33:27;-2.10;99.90
8684;DHT22;4379;59.744;18.206;2023-03-08T15:35:55;-2.00;99.90
8684;DHT22;4379;59.744;18.206;2023-03-08T15:38:24;-2.00;99.90
8684;DHT22;4379;59.744;18.206;2023-03-08T15:40:51;-2.30;99.90
8684;DHT22;4379;59.744;18.206;2023-03-08T15:43:18;-2.30;99.90
8684;DHT22;4379;59.744;18.206;2023-03-08T15:45:46;-2.30;99.90
8684;DHT22;4379;59.744;18.206;2023-03-08T15:48:16;-2.20;99.90
8684;DHT22;4379;59.744;18.206;2023-03-08T15:50:44;-2.20;99.90
8684;DHT22;4379;59.744;18.206;2023-03-08T15:53:12;-2.10;99.90
8684;DHT22;4379;59.744;18.206;2023-03-08T15:55:55;-2.30;99.90
8684;DHT22;4379;59.744;18.206;2023-03-08T15:58:22;-2.40;99.90
8684;DHT22;4379;59.744;18.206;2023-03-08T16:00:49;-2.40;99.90
8684;DHT22;4379;59.744;18.206;2023-03-08T16:03:18;-2.30;99.90
8684;DHT22;4379;59.744;18.206;2023-03-08T16:05:51;-2.30;99.90
8684;DHT22;4379;59.744;18.206;2023-03-08T16:08:19;-2.40;99.90
8684;DHT22;4379;59.744;18.206;2023-03-08T16:10:50;-2.40;99.90
8684;DHT22;4379;59.744;18.206;2023-03-08T16:13:18;-2.50;99.90
8684;DHT22;4379;59.744;18.206;2023-03-08T16:15:48;-2.50;99.90
8684;DHT22;4379;59.744;18.206;2023-03-08T16:18:15;-2.40;99.90
8684;DHT22;4379;59.744;18.206;2023-03-08T16:20:42;-2.50;99.90
8684;DHT22;4379;59.744;18.206;2023-03-08T16:23:12;-2.50;99.90
8684;DHT22;4379;59.744;18.206;2023-03-08T16:25:39;-2.60;99.90
8684;DHT22;4379;59.744;18.206;2023-03-08T16:28:09;-2.50;99.90
8684;DHT22;4379;59.744;18.206;2023-03-08T16:30:37;-2.50;99.90
8684;DHT22;4379;59.744;18.206;2023-03-08T16:33:06;-2.50;99.90
8684;DHT22;4379;59.744;18.206;2023-03-08T16:35:33;-2.50;99.90
8684;DHT22;4379;59.744;18.206;2023-03-08T16:38:00;-2.50;99.90
8684;DHT22;4379;59.744;18.206;2023-03-08T16:40:28;-2.50;99.90
8684;DHT22;4379;59.744;18.206;2023-03-08T16:42:57;-2.60;99.90
8684;DHT22;4379;59.744;18.206;2023-03-08T16:45:24;-2.50;99.90
8684;DHT22;4379;59.744;18.206;2023-03-08T16:47:52;-2.60;99.90
8684;DHT22;4379;59.744;18.206;2023-03-08T16:50:19;-2.60;99.90
8684;DHT22;4379;59.744;18.206;2023-03-08T16:52:47;-2.60;99.90
8684;DHT22;4379;59.744;18.206;2023-03-08T16:55:14;-2.80;99.90
8684;DHT22;4379;59.744;18.206;2023-03-08T16:57:41;-2.80;99.90
8684;DHT22;4379;59.744;18.206;2023-03-08T17:00:09;-2.80;99.90
8684;DHT22;4379;59.744;18.206;2023-03-08T17:02:39;-2.90;99.90
8684;DHT22;4379;59.744;18.206;2023-03-08T17:05:07;-2.90;99.90
8684;DHT22;4379;59.744;18.206;2023-03-08T17:07:37;-2.90;99.90
8684;DHT22;4379;59.744;18.206;2023-03-08T17:10:05;-2.90;99.90
8684;DHT22;4379;59.744;18.206;2023-03-08T17:12:32;-2.90;99.90
8684;DHT22;4379;59.744;18.206;2023-03-08T17:14:59;-2.90;99.90
8684;DHT22;4379;59.744;18.206;2023-03-08T17:17:26;-2.90;99.90